createdAt,value
2019-01-16T00:00:01.775Z,80.74
2019-01-16T00:03:05.886Z,80.79
2019-01-16T00:06:15.297Z,81.01
2019-01-16T00:09:16.007Z,80.91
2019-01-16T00:12:25.435Z,81.22
2019-01-16T00:15:27.914Z,81.48
2019-01-16T00:18:37.285Z,81.93
2019-01-16T00:21:45.516Z,81.38
2019-01-16T00:24:54.938Z,81.49
2019-01-16T00:27:57.123Z,82.37
2019-01-16T00:31:06.532Z,81.81
2019-01-16T00:34:08.642Z,81.69
2019-01-16T00:37:18.049Z,81.74
2019-01-16T00:40:19.954Z,82.89
2019-01-16T00:43:29.350Z,82.53
2019-01-16T00:46:29.747Z,82.50
2019-01-16T00:49:39.129Z,82.33
2019-01-16T00:52:41.616Z,82.48
2019-01-16T00:55:51.053Z,82.53
2019-01-16T00:58:53.525Z,83.57
2019-01-16T01:02:02.970Z,83.14
2019-01-16T01:05:01.246Z,82.66
2019-01-16T01:08:10.630Z,83.80
2019-01-16T01:11:13.118Z,83.92
2019-01-16T01:14:22.500Z,84.06
2019-01-16T01:17:24.602Z,83.43
2019-01-16T01:20:33.987Z,83.53
2019-01-16T01:23:31.801Z,84.13
2019-01-16T01:26:41.273Z,83.78
2019-01-16T01:29:49.048Z,84.07
2019-01-16T01:32:58.451Z,84.30
2019-01-16T01:35:50.570Z,83.92
2019-01-16T01:38:59.989Z,82.86
2019-01-16T01:42:02.134Z,83.23
2019-01-16T01:45:11.529Z,82.80
2019-01-16T01:48:13.808Z,84.25
2019-01-16T01:51:23.214Z,82.97
2019-01-16T01:54:31.249Z,82.96
2019-01-16T01:57:40.639Z,83.26
2019-01-16T02:00:42.746Z,82.98
2019-01-16T02:03:52.163Z,82.86
2019-01-16T02:06:51.517Z,83.00
2019-01-16T02:09:47.756Z,83.35
2019-01-16T02:13:04.258Z,83.02
2019-01-16T02:15:52.490Z,83.98
2019-01-16T02:19:01.882Z,83.14
2019-01-16T02:22:03.990Z,83.40
2019-01-16T02:25:13.393Z,83.17
2019-01-16T02:28:17.914Z,83.28
2019-01-16T02:31:27.350Z,83.52
2019-01-16T02:34:27.888Z,83.06
2019-01-16T02:37:37.282Z,83.26
2019-01-16T02:40:39.412Z,83.04
2019-01-16T02:43:48.808Z,83.93
2019-01-16T02:46:49.268Z,83.13
2019-01-16T02:49:50.078Z,83.75
2019-01-16T02:52:59.475Z,83.94
2019-01-16T02:56:04.278Z,83.40
2019-01-16T02:59:13.699Z,83.47
2019-01-16T03:02:15.851Z,82.81
2019-01-16T03:05:19.869Z,83.79
2019-01-16T03:08:25.262Z,84.15
2019-01-16T03:11:27.384Z,83.64
2019-01-16T03:14:29.758Z,83.24
2019-01-16T03:17:31.630Z,83.42
2019-01-16T03:20:34.104Z,82.98
2019-01-16T03:23:43.481Z,83.00
2019-01-16T03:26:33.726Z,83.00
2019-01-16T03:29:43.126Z,83.21
2019-01-16T03:32:45.229Z,82.99
2019-01-16T03:36:00.407Z,84.58
2019-01-16T03:39:02.576Z,85.18
2019-01-16T03:42:01.567Z,83.69
2019-01-16T03:45:11.063Z,83.55
2019-01-16T03:48:16.146Z,84.98
2019-01-16T03:51:17.961Z,84.01
2019-01-16T03:54:27.348Z,83.73
2019-01-16T03:57:29.560Z,83.65
2019-01-16T04:00:38.987Z,83.61
2019-01-16T04:03:42.934Z,83.61
2019-01-16T04:06:52.337Z,83.71
2019-01-16T04:09:45.454Z,83.79
2019-01-16T04:12:47.706Z,83.97
2019-01-16T04:15:43.952Z,83.58
2019-01-16T04:18:46.376Z,83.44
2019-01-16T04:21:55.821Z,83.76
2019-01-16T04:25:00.780Z,84.05
2019-01-16T04:28:03.043Z,83.29
2019-01-16T04:31:12.419Z,83.13
2019-01-16T04:34:14.545Z,82.88
2019-01-16T04:37:23.930Z,83.25
2019-01-16T04:40:27.763Z,83.52
2019-01-16T04:43:37.158Z,83.51
2019-01-16T04:46:39.182Z,83.32
2019-01-16T04:49:48.569Z,84.25
2019-01-16T04:52:54.827Z,83.85
2019-01-16T04:56:04.218Z,84.36
2019-01-16T04:59:12.557Z,84.40
2019-01-16T05:02:21.996Z,84.37
2019-01-16T05:05:25.044Z,84.04
2019-01-16T05:08:34.491Z,83.59
2019-01-16T05:11:36.784Z,83.49
2019-01-16T05:14:45.034Z,83.98
2019-01-16T05:17:49.925Z,84.35
2019-01-16T05:20:52.076Z,84.07
2019-01-16T05:23:54.421Z,86.18
2019-01-16T05:27:03.807Z,84.53
2019-01-16T05:30:13.247Z,84.29
2019-01-16T05:33:09.450Z,84.37
2019-01-16T05:39:41.742Z,84.42
2019-01-16T05:42:41.959Z,83.91
2019-01-16T05:45:43.899Z,84.27
2019-01-16T05:48:53.306Z,84.41
2019-01-16T05:51:55.218Z,84.71
2019-01-16T05:55:02.859Z,84.89
2019-01-16T05:58:12.261Z,84.73
2019-01-16T06:01:14.260Z,84.87
2019-01-16T06:04:15.416Z,85.01
2019-01-16T06:07:24.815Z,84.32
2019-01-16T06:10:21.273Z,84.27
2019-01-16T06:13:23.321Z,84.53
2019-01-16T06:16:20.282Z,84.80
2019-01-16T06:19:29.694Z,85.35
2019-01-16T06:22:30.411Z,85.58
2019-01-16T06:25:37.575Z,84.54
2019-01-16T06:28:46.965Z,84.21
2019-01-16T06:31:49.096Z,84.24
2019-01-16T06:34:58.532Z,84.26
2019-01-16T06:38:06.718Z,84.73
2019-01-16T06:41:16.146Z,84.56
2019-01-16T06:44:24.259Z,84.13
2019-01-16T06:47:26.605Z,84.02
2019-01-16T06:50:36.045Z,84.29
2019-01-16T06:53:38.171Z,85.29
2019-01-16T06:56:40.356Z,84.93
2019-01-16T06:59:49.787Z,84.95
2019-01-16T07:02:51.833Z,84.95
2019-01-16T07:06:01.250Z,84.39
2019-01-16T07:09:01.723Z,84.52
2019-01-16T07:11:56.079Z,84.30
2019-01-16T07:14:58.121Z,84.14
2019-01-16T07:18:00.056Z,83.81
2019-01-16T07:21:03.612Z,83.90
2019-01-16T07:24:05.951Z,84.81
2019-01-16T07:27:07.975Z,84.46
2019-01-16T07:30:17.305Z,84.56
2019-01-16T07:33:19.446Z,84.67
2019-01-16T07:36:28.866Z,82.54
2019-01-16T07:39:21.135Z,82.77
2019-01-16T07:42:24.116Z,82.09
2019-01-16T07:45:54.111Z,82.58
2019-01-16T07:48:56.380Z,83.76
2019-01-16T07:52:05.786Z,83.69
2019-01-16T07:55:07.871Z,83.45
2019-01-16T07:58:18.292Z,83.77
2019-01-16T08:01:20.150Z,82.76
2019-01-16T08:04:29.572Z,82.70
2019-01-16T08:07:31.689Z,81.12
2019-01-16T08:10:41.107Z,76.39
2019-01-16T08:13:41.586Z,74.54
2019-01-16T08:16:44.031Z,75.67
2019-01-16T08:19:46.350Z,70.37
2019-01-16T08:22:55.768Z,73.97
2019-01-16T08:26:00.934Z,75.29
2019-01-16T08:29:01.424Z,78.98
2019-01-16T08:32:10.949Z,78.58
2019-01-16T08:35:11.439Z,78.05
2019-01-16T08:38:21.357Z,77.14
2019-01-16T08:41:23.554Z,75.47
2019-01-16T08:44:25.722Z,76.71
2019-01-16T08:47:35.245Z,77.78
2019-01-16T08:50:38.753Z,77.17
2019-01-16T08:53:48.257Z,76.95
2019-01-16T08:56:51.500Z,69.83
2019-01-16T08:59:58.386Z,64.79
2019-01-16T09:03:02.001Z,70.79
2019-01-16T09:06:11.454Z,73.58
2019-01-16T09:09:13.212Z,72.37
2019-01-16T09:12:22.672Z,70.50
2019-01-16T09:15:25.328Z,69.05
2019-01-16T09:18:34.853Z,72.44
2019-01-16T09:21:40.219Z,72.96
2019-01-16T09:24:49.738Z,71.57
2019-01-16T09:27:52.959Z,72.12
2019-01-16T09:31:02.389Z,71.99
2019-01-16T09:34:05.030Z,71.12
2019-01-16T09:37:14.448Z,71.20
2019-01-16T09:40:22.528Z,67.11
2019-01-16T09:43:32.000Z,60.47
2019-01-16T09:46:30.149Z,60.86
2019-01-16T09:49:39.593Z,62.60
2019-01-16T09:52:49.117Z,62.47
2019-01-16T09:56:00.162Z,61.71
2019-01-16T09:59:02.270Z,58.48
2019-01-16T10:02:11.712Z,64.66
2019-01-16T10:05:14.066Z,64.92
2019-01-16T10:08:26.462Z,64.35
2019-01-16T10:11:28.884Z,62.71
2019-01-16T10:14:38.251Z,59.36
2019-01-16T10:17:38.670Z,61.36
2019-01-16T10:20:55.405Z,61.11
2019-01-16T10:24:10.838Z,57.62
2019-01-16T10:27:20.256Z,59.45
2019-01-16T10:30:25.074Z,56.97
2019-01-16T10:33:34.658Z,58.98
2019-01-16T10:36:37.056Z,59.92
2019-01-16T10:39:46.476Z,62.03
2019-01-16T10:42:48.812Z,60.43
2019-01-16T10:45:58.278Z,60.64
2019-01-16T10:48:57.048Z,60.68
2019-01-16T10:52:06.478Z,60.70
2019-01-16T10:55:11.216Z,59.75
2019-01-16T10:58:20.708Z,58.58
2019-01-16T11:01:16.924Z,58.91
2019-01-16T11:04:14.770Z,58.54
2019-01-16T11:07:20.224Z,58.99
2019-01-16T11:10:31.272Z,58.31
2019-01-16T11:13:29.211Z,58.51
2019-01-16T11:16:24.533Z,58.15
2019-01-16T11:19:25.023Z,58.88
2019-01-16T11:22:34.431Z,58.85
2019-01-16T11:25:27.822Z,58.74
2019-01-16T11:28:37.256Z,58.22
2019-01-16T11:31:39.566Z,56.78
2019-01-16T11:34:48.990Z,57.76
2019-01-16T11:37:57.246Z,56.43
2019-01-16T11:44:31.340Z,55.33
2019-01-16T11:47:23.561Z,54.93
2019-01-16T11:50:15.281Z,55.05
2019-01-16T11:53:24.780Z,54.76
2019-01-16T11:56:20.746Z,52.83
2019-01-16T11:59:30.154Z,54.39
2019-01-16T12:02:38.701Z,54.62
2019-01-16T12:05:54.783Z,53.97
2019-01-16T12:09:02.783Z,53.89
2019-01-16T12:12:13.818Z,54.69
2019-01-16T12:15:16.311Z,54.69
2019-01-16T12:18:24.489Z,53.90
2019-01-16T12:21:26.792Z,54.79
2019-01-16T12:24:36.157Z,54.47
2019-01-16T12:27:34.459Z,54.34
2019-01-16T12:30:44.427Z,54.79
2019-01-16T12:33:46.348Z,53.94
2019-01-16T12:36:55.731Z,54.05
2019-01-16T12:39:57.728Z,53.83
2019-01-16T12:43:07.123Z,53.03
2019-01-16T12:46:07.623Z,53.55
2019-01-16T12:49:17.147Z,53.49
2019-01-16T12:52:08.599Z,52.76
2019-01-16T12:55:08.762Z,52.24
2019-01-16T12:58:13.382Z,53.13
2019-01-16T13:01:20.195Z,52.86
2019-01-16T13:04:22.388Z,53.53
2019-01-16T13:07:31.810Z,53.90
2019-01-16T13:10:33.601Z,53.80
2019-01-16T13:13:42.970Z,54.07
2019-01-16T13:16:45.053Z,52.92
2019-01-16T13:19:47.033Z,54.04
2019-01-16T13:22:56.475Z,54.28
2019-01-16T13:25:48.747Z,54.33
2019-01-16T13:28:58.130Z,54.38
2019-01-16T13:32:00.465Z,54.87
2019-01-16T13:35:09.883Z,53.37
2019-01-16T13:38:12.149Z,53.14
2019-01-16T13:41:14.666Z,52.96
2019-01-16T13:44:24.047Z,53.20
2019-01-16T13:47:26.231Z,53.66
2019-01-16T13:50:36.351Z,52.99
2019-01-16T13:53:35.127Z,53.58
2019-01-16T13:56:44.562Z,53.49
2019-01-16T13:59:52.681Z,54.02
2019-01-16T14:03:03.716Z,54.02
2019-01-16T14:06:05.606Z,52.71
2019-01-16T14:09:14.995Z,53.40
2019-01-16T14:12:16.858Z,53.48
2019-01-16T14:15:28.537Z,54.14
2019-01-16T14:18:22.509Z,54.17
2019-01-16T14:21:24.435Z,54.02
2019-01-16T14:27:46.524Z,53.18
2019-01-16T14:30:48.917Z,53.42
2019-01-16T14:34:06.815Z,52.35
2019-01-16T14:37:22.650Z,52.42
2019-01-16T14:40:30.453Z,51.93
2019-01-16T14:43:21.192Z,52.57
2019-01-16T14:46:21.304Z,52.24
2019-01-16T14:49:23.510Z,53.46
2019-01-16T14:52:33.169Z,53.45
2019-01-16T14:55:31.245Z,53.31
2019-01-16T14:58:33.439Z,53.36
2019-01-16T15:01:44.598Z,52.79
2019-01-16T15:04:48.317Z,53.11
2019-01-16T15:07:59.478Z,53.83
2019-01-16T15:10:56.310Z,54.47
2019-01-16T15:14:05.740Z,56.70
2019-01-16T15:17:06.015Z,56.07
2019-01-16T15:20:01.397Z,56.20
2019-01-16T15:22:54.064Z,55.87
2019-01-16T15:26:08.335Z,57.06
2019-01-16T15:29:11.948Z,57.47
2019-01-16T15:32:21.399Z,58.01
2019-01-16T15:35:17.235Z,59.13
2019-01-16T15:38:26.647Z,58.83
2019-01-16T15:41:28.771Z,58.64
2019-01-16T15:44:38.185Z,59.97
2019-01-16T15:47:40.375Z,59.08
2019-01-16T15:50:49.834Z,59.79
2019-01-16T15:53:51.837Z,60.13
2019-01-16T15:57:01.240Z,61.84
2019-01-16T16:00:03.614Z,60.63
2019-01-16T16:03:13.040Z,62.16
2019-01-16T16:06:15.188Z,63.36
2019-01-16T16:09:46.256Z,64.84
2019-01-16T16:12:38.582Z,65.01
2019-01-16T16:16:03.495Z,64.73
2019-01-16T16:19:12.082Z,65.31
2019-01-16T16:22:20.816Z,66.12
2019-01-16T16:25:14.017Z,67.86
2019-01-16T16:31:24.190Z,67.79
2019-01-16T16:34:18.864Z,68.33
2019-01-16T16:37:20.691Z,68.57
2019-01-16T16:40:30.528Z,68.75
2019-01-16T16:43:30.001Z,69.01
2019-01-16T16:46:32.192Z,68.38
2019-01-16T16:49:44.075Z,68.32
2019-01-16T16:52:46.340Z,69.21
2019-01-16T16:55:55.836Z,70.19
2019-01-16T16:58:57.704Z,70.66
2019-01-16T17:01:51.626Z,70.17
2019-01-16T17:05:01.024Z,70.52
2019-01-16T17:08:07.450Z,70.26
2019-01-16T17:11:16.855Z,70.48
2019-01-16T17:14:18.596Z,70.91
2019-01-16T17:17:28.039Z,70.80
2019-01-16T17:20:30.411Z,71.01
2019-01-16T17:23:39.874Z,71.72
2019-01-16T17:26:41.896Z,71.97
2019-01-16T17:29:51.283Z,72.02
2019-01-16T17:32:56.244Z,72.91
2019-01-16T17:36:05.774Z,73.54
2019-01-16T17:39:07.886Z,73.75
2019-01-16T17:42:18.930Z,74.12
2019-01-16T17:45:20.748Z,74.75
2019-01-16T17:48:30.238Z,74.46
2019-01-16T17:51:32.212Z,74.73
2019-01-16T17:54:41.621Z,75.17
2019-01-16T17:57:43.874Z,74.55
2019-01-16T18:00:53.268Z,74.69
2019-01-16T18:03:53.560Z,74.37
2019-01-16T18:07:02.955Z,74.91
2019-01-16T18:10:03.351Z,74.95
2019-01-16T18:13:12.866Z,75.48
2019-01-16T18:16:19.286Z,76.34
2019-01-16T18:19:28.775Z,76.04
2019-01-16T18:22:33.308Z,76.35
2019-01-16T18:25:42.757Z,76.41
2019-01-16T18:28:44.540Z,76.70
2019-01-16T18:31:53.927Z,77.41
2019-01-16T18:34:48.224Z,77.43
2019-01-16T18:37:57.632Z,77.29
2019-01-16T18:40:59.399Z,77.22
2019-01-16T18:44:08.805Z,77.65
2019-01-16T18:47:10.895Z,77.34
2019-01-16T18:50:20.298Z,77.55
2019-01-16T18:53:21.766Z,77.79
2019-01-16T18:56:31.224Z,77.76
2019-01-16T18:59:33.163Z,78.05
2019-01-16T19:05:48.011Z,77.86
2019-01-16T19:08:57.480Z,78.37
2019-01-16T19:11:59.693Z,78.63
2019-01-16T19:15:09.188Z,78.36
2019-01-16T19:18:13.526Z,78.35
2019-01-16T19:21:23.038Z,77.92
2019-01-16T19:24:15.571Z,78.77
2019-01-16T19:27:17.988Z,78.08
2019-01-16T19:30:15.199Z,77.48
2019-01-16T19:33:24.711Z,77.90
2019-01-16T19:36:25.100Z,77.92
2019-01-16T19:39:34.505Z,77.80
2019-01-16T19:42:39.837Z,78.50
2019-01-16T19:45:49.265Z,78.56
2019-01-16T19:48:45.828Z,78.47
2019-01-16T19:51:55.251Z,78.37
2019-01-16T19:54:55.616Z,77.96
2019-01-16T19:58:05.004Z,77.63
2019-01-16T20:01:09.432Z,77.04
2019-01-16T20:04:18.835Z,77.00
2019-01-16T20:07:21.193Z,76.21
2019-01-16T20:13:33.255Z,74.60
2019-01-16T20:16:36.750Z,73.84
2019-01-16T20:19:48.484Z,72.37
2019-01-16T20:22:56.863Z,72.68
2019-01-16T20:26:06.342Z,71.73
2019-01-16T20:29:02.060Z,70.40
2019-01-16T20:32:11.485Z,70.28
2019-01-16T20:35:13.618Z,69.79
2019-01-16T20:38:23.033Z,69.71
2019-01-16T20:41:24.650Z,69.90
2019-01-16T20:44:34.019Z,69.17
2019-01-16T20:47:28.730Z,68.73
2019-01-16T20:50:38.104Z,69.70
2019-01-16T20:53:33.882Z,69.79
2019-01-16T20:56:43.303Z,70.01
2019-01-16T20:59:48.556Z,69.96
2019-01-16T21:02:50.659Z,69.38
2019-01-16T21:05:48.306Z,69.75
2019-01-16T21:08:50.616Z,69.87
2019-01-16T21:12:00.005Z,69.98
2019-01-16T21:14:59.159Z,70.10
2019-01-16T21:18:08.572Z,70.88
2019-01-16T21:21:11.951Z,70.76
2019-01-16T21:24:09.699Z,71.14
2019-01-16T21:27:17.773Z,71.34
2019-01-16T21:30:18.166Z,71.55
2019-01-16T21:33:20.306Z,71.20
2019-01-16T21:36:29.698Z,71.00
2019-01-16T21:39:31.691Z,71.43
2019-01-16T21:42:41.090Z,70.13
2019-01-16T21:45:43.429Z,70.62
2019-01-16T21:48:52.829Z,71.50
2019-01-16T21:51:51.433Z,70.95
2019-01-16T21:55:00.915Z,71.69
2019-01-16T21:58:04.797Z,71.39
2019-01-16T22:01:14.171Z,70.92
2019-01-16T22:04:06.809Z,70.44
2019-01-16T22:07:16.212Z,70.48
2019-01-16T22:10:18.035Z,70.75
2019-01-16T22:13:27.449Z,70.58
2019-01-16T22:16:35.838Z,70.67
2019-01-16T22:19:45.352Z,71.22
2019-01-16T22:22:47.427Z,71.53
2019-01-16T22:25:56.875Z,71.53
2019-01-16T22:28:53.569Z,71.92
2019-01-16T22:32:02.943Z,71.72
2019-01-16T22:35:05.189Z,71.56
2019-01-16T22:38:14.693Z,71.89
2019-01-16T22:41:16.853Z,71.64
2019-01-16T22:44:26.281Z,71.92
2019-01-16T22:47:27.881Z,71.70
2019-01-16T22:50:37.329Z,71.83
2019-01-16T22:53:43.617Z,71.54
2019-01-16T22:56:53.002Z,72.11
2019-01-16T22:59:54.665Z,72.04
2019-01-16T23:02:44.957Z,72.43
2019-01-16T23:05:46.963Z,72.18
2019-01-16T23:08:56.319Z,72.32
2019-01-16T23:12:01.598Z,72.26
2019-01-16T23:15:10.952Z,72.16
2019-01-16T23:18:11.403Z,72.24
2019-01-16T23:21:20.798Z,72.94
2019-01-16T23:24:16.288Z,73.44
2019-01-16T23:27:25.720Z,73.23
2019-01-16T23:30:32.117Z,72.72
2019-01-16T23:33:29.680Z,72.69
2019-01-16T23:36:32.251Z,72.55
2019-01-16T23:43:06.611Z,72.40
2019-01-16T23:46:08.899Z,73.00
2019-01-16T23:49:18.339Z,72.99
2019-01-16T23:52:14.042Z,72.68
2019-01-16T23:55:26.675Z,72.30
2019-01-16T23:58:28.585Z,72.28
